August 10, 2022

Time Code Weather Temp. Visibility Ceiling Wind METAR/SPECI
12:00
V
28 °C 10 km+ - 220° 220° 14 kt METAR DGAA 101200Z 22014KT 9999 FEW022 28/22 Q1013 NOSIG
10:00
M
27 °C 10 km+ 1,500 ft 250° 250° 14 kt METAR DGAA 101000Z 25014KT 9999 BKN015 27/21 Q1014 NOSIG
09:00
V
26 °C 10 km+ - 240° 240° 11 kt METAR DGAA 100900Z 24011KT 9999 SCT010 26/22 Q1016 NOSIG
08:00
M
24 °C 5 km - 250° 250° 10 kt METAR DGAA 100800Z 25010KT 5000 BR NSC 24/22 Q1015 NOSIG
07:00
I
24 °C 3 km - 260° 260° 10 kt METAR DGAA 100700Z 26010KT 3000 BR NSC 24/22 Q1014 NOSIG
06:00
V
23 °C 10 km+ - 250° 250° 8 kt METAR DGAA 100600Z 25008KT CAVOK 23/22 Q1012 NOSIG
05:00
V
23 °C 10 km+ - 260° 260° 8 kt METAR DGAA 100500Z 26008KT 9999 FEW010 23/22 Q1013 NOSIG
04:00
V
24 °C 10 km+ - 260° 260° 5 kt METAR DGAA 100400Z 26005KT 9999 SCT010 24/22 Q1013 NOSIG
03:00
V
24 °C 10 km+ - 240° 240° 7 kt METAR DGAA 100300Z 24007KT 9999 SCT010 24/22 Q1013 NOSIG
02:00
V
24 °C 10 km+ - 240° 240° 10 kt METAR DGAA 100200Z 24010KT 9999 SCT010 24/22 Q1013 NOSIG
01:00
V
24 °C 10 km+ - 230° 230° 9 kt METAR DGAA 100100Z 23009KT 9999 SCT010 24/22 Q1014 NOSIG
00:00
V
24 °C 10 km+ - 230° 230° 8 kt METAR DGAA 100000Z 23008KT 9999 SCT010 24/22 Q1014 NOSIG

August 9, 2022

Time Code Weather Temp. Visibility Ceiling Wind METAR/SPECI
23:00
V
24 °C 10 km+ - 230° 230° 9 kt METAR DGAA 092300Z 23009KT 9999 SCT008 24/22 Q1015 NOSIG
22:00
V
24 °C 10 km+ - 220° 220° 12 kt METAR DGAA 092200Z 22012KT 9999 SCT008 24/22 Q1014 NOSIG
21:00
V
25 °C 10 km+ - 220° 220° 12 kt METAR DGAA 092100Z 22012KT 9999 SCT012 25/22 Q1014 NOSIG
20:00
V
25 °C 10 km+ - 220° 220° 11 kt METAR DGAA 092000Z 22011KT 9999 FEW012 25/22 Q1013 NOSIG
19:00
V
25 °C 10 km+ - 210° 210° 14 kt METAR DGAA 091900Z 21014KT 9999 FEW012 25/22 Q1013 NOSIG
18:00
V
25 °C 10 km+ - 210° 210° 13 kt METAR DGAA 091800Z 21013KT 9999 SCT014 25/22 Q1012 NOSIG
16:00
V
26 °C 10 km+ - 200° 200° 16 kt METAR DGAA 091600Z 20016KT 9999 SCT017 26/21 Q1011 NOSIG
15:00
V
26 °C 10 km+ - 200° 200° 17 kt METAR DGAA 091500Z 20017KT 9999 SCT017 26/21 Q1012 NOSIG
14:00
V
26 °C 10 km+ - 200° 200° 18 kt METAR DGAA 091400Z 20018KT 9999 SCT017 26/21 Q1012 NOSIG
13:00
V
27 °C 10 km+ - 210° 210° 17 kt METAR DGAA 091300Z 21017KT 9999 SCT015 27/21 Q1012 NOSIG
12:00
M
28 °C 10 km+ 1,200 ft 220° 220° 13 kt METAR DGAA 091200Z 22013KT 9999 BKN012 28/22 Q1013 NOSIG
11:00
M
27 °C 10 km+ 1,200 ft 210° 210° 13 kt METAR DGAA 091100Z 21013KT 9999 BKN012 27/21 Q1014 NOSIG
10:00
M
26 °C 10 km+ 1,100 ft 220° 220° 11 kt METAR DGAA 091000Z 22011KT 9999 BKN011 26/21 Q1014 NOSIG
08:00
M
25 °C 10 km+ 1,000 ft 240° 240° 9 kt METAR DGAA 090800Z 24009KT 9999 BKN010 25/22 Q1014 NOSIG
07:00
M
24 °C 10 km+ 1,000 ft 250° 250° 8 kt METAR DGAA 090700Z 25008KT 9999 BKN010 24/22 Q1013 NOSIG
06:00
V
24 °C 10 km+ - 230° 230° 8 kt METAR DGAA 090600Z 23008KT 9999 SCT010 24/22 Q1013 NOSIG
04:00
M
24 °C 10 km+ 1,000 ft 230° 230° 8 kt METAR DGAA 090400Z 23008KT 9999 BKN010 24/22 Q1012 NOSIG
03:00
M
24 °C 10 km+ 1,000 ft 230° 230° 9 kt METAR DGAA 090300Z 23009KT 9999 BKN010 24/22 Q1012 NOSIG
02:00
M
24 °C 10 km+ 1,000 ft 220° 220° 9 kt METAR DGAA 090200Z 22009KT 9999 BKN010 24/22 Q1013 NOSIG
01:00
M
24 °C 10 km+ 1,000 ft 220° 220° 11 kt METAR DGAA 090100Z 22011KT 9999 BKN010 24/22 Q1013 NOSIG
00:00
M
24 °C 10 km+ 1,000 ft 230° 230° 12 kt METAR DGAA 090000Z 23012KT 9999 BKN010 24/22 Q1013 NOSIG

August 8, 2022

Time Code Weather Temp. Visibility Ceiling Wind METAR/SPECI
23:00
M
24 °C 10 km+ 1,000 ft 220° 220° 10 kt METAR DGAA 082300Z 22010KT 9999 BKN010 24/22 Q1013 NOSIG
22:00
V
24 °C 10 km+ - 220° 220° 12 kt METAR DGAA 082200Z 22012KT 9999 SCT010 24/22 Q1013 NOSIG
21:00
V
24 °C 10 km+ - 220° 220° 10 kt METAR DGAA 082100Z 22010KT 9999 SCT010 24/22 Q1013 NOSIG
20:00
V
24 °C 10 km+ - 220° 220° 13 kt METAR DGAA 082000Z 22013KT 9999 FEW010 24/22 Q1012 NOSIG
19:00
V
24 °C 10 km+ - 220° 220° 14 kt METAR DGAA 081900Z 22014KT 9999 FEW010 24/22 Q1012 NOSIG
18:00
V
25 °C 10 km+ - 210° 210° 15 kt METAR DGAA 081800Z 21015KT CAVOK 25/21 Q1011 NOSIG
17:00
V
26 °C 10 km+ - 210° 210° 16 kt METAR DGAA 081700Z 21016KT CAVOK 26/21 Q1011 NOSIG
16:00
V
27 °C 10 km+ - 200° 200° 18 kt METAR DGAA 081600Z 20018KT CAVOK 27/21 Q1010 NOSIG
15:00
V
28 °C 10 km+ - 210° 210° 18 kt METAR DGAA 081500Z 21018KT 9999 FEW024 28/21 Q1011 NOSIG
14:00
V
28 °C 10 km+ - 220° 220° 17 kt METAR DGAA 081400Z 22017KT 9999 SCT029 28/21 Q1012 NOSIG
Older data

We and third parties follow your internet behavior on our website with cookies. If you continue, we assume you agree with our cookie policy. Learn more